sensor_id;sensor_type;location;lat;lon;timestamp;pressure;altitude;pressure_sealevel;temperature;humidity
51496;BME280;37572;52.094;4.870;2023-05-03T00:00:55;103016.72;;;9.65;54.68
51496;BME280;37572;52.094;4.870;2023-05-03T00:03:24;103021.28;;;9.63;54.41
51496;BME280;37572;52.094;4.870;2023-05-03T00:05:49;103020.63;;;9.59;54.61
51496;BME280;37572;52.094;4.870;2023-05-03T00:08:15;103012.84;;;9.56;54.51
51496;BME280;37572;52.094;4.870;2023-05-03T00:10:41;103014.84;;;9.53;54.71
51496;BME280;37572;52.094;4.870;2023-05-03T00:13:06;103012.28;;;9.51;54.54
51496;BME280;37572;52.094;4.870;2023-05-03T00:15:31;103015.03;;;9.50;54.58
51496;BME280;37572;52.094;4.870;2023-05-03T00:17:57;103011.72;;;9.46;54.90
51496;BME280;37572;52.094;4.870;2023-05-03T00:20:22;103012.66;;;9.45;54.55
51496;BME280;37572;52.094;4.870;2023-05-03T00:22:49;103012.75;;;9.43;54.99
51496;BME280;37572;52.094;4.870;2023-05-03T00:25:15;103009.31;;;9.41;54.63
51496;BME280;37572;52.094;4.870;2023-05-03T00:27:40;103007.59;;;9.40;54.69
51496;BME280;37572;52.094;4.870;2023-05-03T00:30:06;103007.59;;;9.40;54.79
51496;BME280;37572;52.094;4.870;2023-05-03T00:32:32;103006.66;;;9.41;54.94
51496;BME280;37572;52.094;4.870;2023-05-03T00:34:57;103011.91;;;9.43;54.88
51496;BME280;37572;52.094;4.870;2023-05-03T00:37:23;103019.00;;;9.42;55.16
51496;BME280;37572;52.094;4.870;2023-05-03T00:39:49;103015.50;;;9.42;55.18
51496;BME280;37572;52.094;4.870;2023-05-03T00:42:14;103004.00;;;9.41;54.95
51496;BME280;37572;52.094;4.870;2023-05-03T00:44:40;103007.41;;;9.43;55.08
51496;BME280;37572;52.094;4.870;2023-05-03T00:47:05;103005.59;;;9.44;55.20
51496;BME280;37572;52.094;4.870;2023-05-03T00:49:32;103010.94;;;9.44;54.92
51496;BME280;37572;52.094;4.870;2023-05-03T00:51:57;103007.50;;;9.42;54.94
51496;BME280;37572;52.094;4.870;2023-05-03T00:54:26;103008.47;;;9.41;54.90
51496;BME280;37572;52.094;4.870;2023-05-03T00:56:52;103009.50;;;9.38;54.78
51496;BME280;37572;52.094;4.870;2023-05-03T00:59:18;103010.44;;;9.37;54.91
51496;BME280;37572;52.094;4.870;2023-05-03T01:01:47;103014.00;;;9.38;54.89
51496;BME280;37572;52.094;4.870;2023-05-03T01:04:13;103021.97;;;9.38;54.72
51496;BME280;37572;52.094;4.870;2023-05-03T01:07:06;103022.16;;;9.35;54.60
51496;BME280;37572;52.094;4.870;2023-05-03T01:17:56;103013.31;;;9.20;54.54
51496;BME280;37572;52.094;4.870;2023-05-03T01:20:22;103006.19;;;9.20;54.46
51496;BME280;37572;52.094;4.870;2023-05-03T01:25:24;103007.72;;;9.24;54.38
51496;BME280;37572;52.094;4.870;2023-05-03T01:27:49;103012.72;;;9.29;54.57
51496;BME280;37572;52.094;4.870;2023-05-03T01:30:15;103009.03;;;9.32;54.29
51496;BME280;37572;52.094;4.870;2023-05-03T01:35:54;103021.50;;;9.31;54.75
51496;BME280;37572;52.094;4.870;2023-05-03T01:38:22;103016.44;;;9.26;54.26
51496;BME280;37572;52.094;4.870;2023-05-03T01:40:52;103017.16;;;9.14;54.25
51496;BME280;37572;52.094;4.870;2023-05-03T01:43:19;103006.38;;;9.03;53.98
51496;BME280;37572;52.094;4.870;2023-05-03T01:45:45;103008.44;;;8.98;54.20
51496;BME280;37572;52.094;4.870;2023-05-03T01:48:15;103016.41;;;8.98;54.37
51496;BME280;37572;52.094;4.870;2023-05-03T01:50:40;103003.97;;;8.98;53.85
51496;BME280;37572;52.094;4.870;2023-05-03T01:53:06;103001.97;;;9.02;53.93
51496;BME280;37572;52.094;4.870;2023-05-03T01:55:31;102987.66;;;9.04;54.31
51496;BME280;37572;52.094;4.870;2023-05-03T01:57:57;102995.44;;;9.07;54.19
51496;BME280;37572;52.094;4.870;2023-05-03T02:00:22;102996.97;;;9.12;54.66
51496;BME280;37572;52.094;4.870;2023-05-03T02:02:48;102984.34;;;9.15;54.72
51496;BME280;37572;52.094;4.870;2023-05-03T02:05:13;102976.00;;;9.21;54.66
51496;BME280;37572;52.094;4.870;2023-05-03T02:07:38;102981.88;;;9.26;54.58
51496;BME280;37572;52.094;4.870;2023-05-03T02:10:04;102973.63;;;9.31;54.55
51496;BME280;37572;52.094;4.870;2023-05-03T02:12:30;102968.00;;;9.36;54.65
51496;BME280;37572;52.094;4.870;2023-05-03T02:14:55;102965.94;;;9.41;54.44
51496;BME280;37572;52.094;4.870;2023-05-03T02:17:20;102953.28;;;9.44;54.15
51496;BME280;37572;52.094;4.870;2023-05-03T02:19:50;102945.97;;;9.48;54.66
51496;BME280;37572;52.094;4.870;2023-05-03T02:22:16;102942.25;;;9.51;54.54
51496;BME280;37572;52.094;4.870;2023-05-03T02:24:41;102943.03;;;9.53;53.99
51496;BME280;37572;52.094;4.870;2023-05-03T02:27:07;102941.13;;;9.55;53.85
51496;BME280;37572;52.094;4.870;2023-05-03T02:29:32;102941.78;;;9.58;54.01
51496;BME280;37572;52.094;4.870;2023-05-03T02:31:58;102947.75;;;9.62;53.57
51496;BME280;37572;52.094;4.870;2023-05-03T02:34:23;102953.81;;;9.64;53.63
51496;BME280;37572;52.094;4.870;2023-05-03T02:36:48;102955.53;;;9.65;53.51
51496;BME280;37572;52.094;4.870;2023-05-03T02:39:14;102975.78;;;9.68;53.21
51496;BME280;37572;52.094;4.870;2023-05-03T02:41:39;102973.88;;;9.70;53.02
51496;BME280;37572;52.094;4.870;2023-05-03T02:44:04;102974.72;;;9.70;53.18
51496;BME280;37572;52.094;4.870;2023-05-03T02:46:30;102977.38;;;9.70;52.79
51496;BME280;37572;52.094;4.870;2023-05-03T02:48:55;102979.94;;;9.72;53.00
51496;BME280;37572;52.094;4.870;2023-05-03T02:51:21;102986.97;;;9.73;52.56
51496;BME280;37572;52.094;4.870;2023-05-03T02:53:46;102979.00;;;9.73;52.74
51496;BME280;37572;52.094;4.870;2023-05-03T02:56:11;102984.41;;;9.71;52.67
51496;BME280;37572;52.094;4.870;2023-05-03T02:58:36;102985.44;;;9.69;52.47
51496;BME280;37572;52.094;4.870;2023-05-03T03:01:02;102993.53;;;9.67;52.25
51496;BME280;37572;52.094;4.870;2023-05-03T03:03:27;102981.47;;;9.61;52.25
51496;BME280;37572;52.094;4.870;2023-05-03T03:05:52;102981.75;;;9.57;52.46
51496;BME280;37572;52.094;4.870;2023-05-03T03:08:17;102985.59;;;9.53;52.33
51496;BME280;37572;52.094;4.870;2023-05-03T03:10:43;102983.97;;;9.50;52.37
51496;BME280;37572;52.094;4.870;2023-05-03T03:13:08;102984.16;;;9.47;52.46
51496;BME280;37572;52.094;4.870;2023-05-03T03:15:33;102979.09;;;9.42;52.28
51496;BME280;37572;52.094;4.870;2023-05-03T03:17:59;102973.31;;;9.36;52.43
51496;BME280;37572;52.094;4.870;2023-05-03T03:20:25;102981.69;;;9.30;52.71
51496;BME280;37572;52.094;4.870;2023-05-03T03:22:50;102978.47;;;9.24;52.79
51496;BME280;37572;52.094;4.870;2023-05-03T03:25:15;102981.31;;;9.21;52.77
51496;BME280;37572;52.094;4.870;2023-05-03T03:27:40;102988.72;;;9.16;52.20
51496;BME280;37572;52.094;4.870;2023-05-03T03:30:07;102983.19;;;9.05;52.56
51496;BME280;37572;52.094;4.870;2023-05-03T03:32:33;102987.38;;;8.95;52.85
51496;BME280;37572;52.094;4.870;2023-05-03T03:34:59;102997.41;;;8.89;52.81
51496;BME280;37572;52.094;4.870;2023-05-03T03:37:24;102995.88;;;8.85;53.09
51496;BME280;37572;52.094;4.870;2023-05-03T03:39:50;102996.94;;;8.83;52.84
51496;BME280;37572;52.094;4.870;2023-05-03T03:42:15;102995.47;;;8.77;53.42
51496;BME280;37572;52.094;4.870;2023-05-03T03:44:40;102991.31;;;8.73;53.06
51496;BME280;37572;52.094;4.870;2023-05-03T03:47:06;102998.50;;;8.71;53.55
51496;BME280;37572;52.094;4.870;2023-05-03T03:49:31;102988.06;;;8.68;53.15
51496;BME280;37572;52.094;4.870;2023-05-03T03:51:56;102993.38;;;8.68;53.16
51496;BME280;37572;52.094;4.870;2023-05-03T03:54:22;102989.00;;;8.67;53.38
51496;BME280;37572;52.094;4.870;2023-05-03T03:56:47;102986.44;;;8.65;53.91
51496;BME280;37572;52.094;4.870;2023-05-03T03:59:12;102996.97;;;8.67;53.71
51496;BME280;37572;52.094;4.870;2023-05-03T04:01:38;102996.88;;;8.68;53.63
51496;BME280;37572;52.094;4.870;2023-05-03T04:04:03;102996.78;;;8.70;53.98
51496;BME280;37572;52.094;4.870;2023-05-03T04:06:28;103008.19;;;8.72;53.36
51496;BME280;37572;52.094;4.870;2023-05-03T04:08:54;103006.50;;;8.71;53.58
51496;BME280;37572;52.094;4.870;2023-05-03T04:11:19;103008.25;;;8.70;53.77
51496;BME280;37572;52.094;4.870;2023-05-03T04:13:48;103010.06;;;8.70;53.19
51496;BME280;37572;52.094;4.870;2023-05-03T04:16:13;103015.47;;;8.68;53.48
51496;BME280;37572;52.094;4.870;2023-05-03T04:18:39;103030.56;;;8.68;53.38
51496;BME280;37572;52.094;4.870;2023-05-03T04:21:05;103030.56;;;8.68;53.82
51496;BME280;37572;52.094;4.870;2023-05-03T04:23:31;103033.22;;;8.68;53.40
51496;BME280;37572;52.094;4.870;2023-05-03T04:25:56;103036.06;;;8.65;53.87
51496;BME280;37572;52.094;4.870;2023-05-03T04:28:22;103034.41;;;8.62;53.71
51496;BME280;37572;52.094;4.870;2023-05-03T04:30:47;103036.31;;;8.60;53.69
51496;BME280;37572;52.094;4.870;2023-05-03T04:33:13;103033.66;;;8.60;53.47
51496;BME280;37572;52.094;4.870;2023-05-03T04:35:39;103038.13;;;8.60;53.73
51496;BME280;37572;52.094;4.870;2023-05-03T04:38:05;103039.66;;;8.64;54.07
51496;BME280;37572;52.094;4.870;2023-05-03T04:40:30;103040.41;;;8.66;53.96
51496;BME280;37572;52.094;4.870;2023-05-03T04:42:56;103033.97;;;8.70;53.87
51496;BME280;37572;52.094;4.870;2023-05-03T04:45:22;103020.53;;;8.73;54.04
51496;BME280;37572;52.094;4.870;2023-05-03T04:47:48;103028.16;;;8.79;54.06
51496;BME280;37572;52.094;4.870;2023-05-03T04:50:13;103027.59;;;8.88;54.39
51496;BME280;37572;52.094;4.870;2023-05-03T04:52:39;103037.59;;;8.99;54.63
51496;BME280;37572;52.094;4.870;2023-05-03T04:55:05;103031.53;;;9.12;54.71
51496;BME280;37572;52.094;4.870;2023-05-03T04:57:30;103029.16;;;9.21;54.11
51496;BME280;37572;52.094;4.870;2023-05-03T04:59:59;103040.09;;;9.31;54.17
51496;BME280;37572;52.094;4.870;2023-05-03T05:02:24;103040.41;;;9.41;53.84
51496;BME280;37572;52.094;4.870;2023-05-03T05:04:51;103031.84;;;9.50;53.68
51496;BME280;37572;52.094;4.870;2023-05-03T05:07:16;103036.59;;;9.59;53.29
51496;BME280;37572;52.094;4.870;2023-05-03T05:09:42;103038.47;;;9.72;53.39
51496;BME280;37572;52.094;4.870;2023-05-03T05:12:07;103036.84;;;9.84;53.30
51496;BME280;37572;52.094;4.870;2023-05-03T05:14:33;103043.09;;;9.97;52.73
51496;BME280;37572;52.094;4.870;2023-05-03T05:16:58;103037.09;;;10.08;52.46
51496;BME280;37572;52.094;4.870;2023-05-03T05:19:23;103037.91;;;10.23;52.41
51496;BME280;37572;52.094;4.870;2023-05-03T05:21:52;103043.31;;;10.35;52.19
51496;BME280;37572;52.094;4.870;2023-05-03T05:24:18;103038.97;;;10.47;51.83
51496;BME280;37572;52.094;4.870;2023-05-03T05:26:43;103040.94;;;10.58;51.81
51496;BME280;37572;52.094;4.870;2023-05-03T05:29:09;103042.88;;;10.69;51.89
51496;BME280;37572;52.094;4.870;2023-05-03T05:31:34;103045.69;;;10.80;51.85
51496;BME280;37572;52.094;4.870;2023-05-03T05:34:00;103040.50;;;10.91;51.73
51496;BME280;37572;52.094;4.870;2023-05-03T05:36:26;103036.22;;;11.02;51.70
51496;BME280;37572;52.094;4.870;2023-05-03T05:38:51;103040.06;;;11.10;51.44
51496;BME280;37572;52.094;4.870;2023-05-03T05:41:17;103039.44;;;11.20;51.36
51496;BME280;37572;52.094;4.870;2023-05-03T05:43:42;103047.47;;;11.33;51.24
51496;BME280;37572;52.094;4.870;2023-05-03T05:46:08;103048.22;;;11.47;50.86
51496;BME280;37572;52.094;4.870;2023-05-03T05:48:34;103047.75;;;11.66;51.25
51496;BME280;37572;52.094;4.870;2023-05-03T05:50:59;103046.53;;;11.83;50.59
51496;BME280;37572;52.094;4.870;2023-05-03T05:53:25;103055.81;;;12.03;50.65
51496;BME280;37572;52.094;4.870;2023-05-03T05:55:50;103057.13;;;12.22;50.62
51496;BME280;37572;52.094;4.870;2023-05-03T05:58:16;103054.81;;;12.42;50.38
51496;BME280;37572;52.094;4.870;2023-05-03T06:00:41;103058.06;;;12.58;49.88
51496;BME280;37572;52.094;4.870;2023-05-03T06:03:07;103056.16;;;12.71;49.68
51496;BME280;37572;52.094;4.870;2023-05-03T06:05:32;103058.00;;;12.82;48.76
51496;BME280;37572;52.094;4.870;2023-05-03T06:07:57;103061.59;;;12.94;48.17
51496;BME280;37572;52.094;4.870;2023-05-03T06:10:22;103045.78;;;13.02;47.23
51496;BME280;37572;52.094;4.870;2023-05-03T06:12:48;103050.34;;;13.13;46.83
51496;BME280;37572;52.094;4.870;2023-05-03T06:15:13;103048.53;;;13.25;46.66
51496;BME280;37572;52.094;4.870;2023-05-03T06:17:39;103042.13;;;13.39;46.53
51496;BME280;37572;52.094;4.870;2023-05-03T06:20:04;103045.41;;;13.54;45.50
51496;BME280;37572;52.094;4.870;2023-05-03T06:22:30;103045.19;;;13.68;45.25
51496;BME280;37572;52.094;4.870;2023-05-03T06:24:56;103052.56;;;13.87;45.11
51496;BME280;37572;52.094;4.870;2023-05-03T06:27:21;103043.06;;;14.05;44.31
51496;BME280;37572;52.094;4.870;2023-05-03T06:29:47;103035.69;;;14.30;44.68
51496;BME280;37572;52.094;4.870;2023-05-03T06:32:14;103050.31;;;14.58;44.09
51496;BME280;37572;52.094;4.870;2023-05-03T06:34:39;103053.66;;;14.83;42.85
51496;BME280;37572;52.094;4.870;2023-05-03T06:37:05;103048.31;;;15.04;42.50
51496;BME280;37572;52.094;4.870;2023-05-03T06:39:30;103046.56;;;15.24;42.15
51496;BME280;37572;52.094;4.870;2023-05-03T06:41:55;103041.44;;;15.42;41.55
51496;BME280;37572;52.094;4.870;2023-05-03T06:44:21;103038.28;;;15.68;41.38
51496;BME280;37572;52.094;4.870;2023-05-03T06:46:46;103041.78;;;15.89;40.46
51496;BME280;37572;52.094;4.870;2023-05-03T06:49:11;103042.69;;;16.09;39.97
51496;BME280;37572;52.094;4.870;2023-05-03T06:51:37;103034.22;;;16.34;39.91
51496;BME280;37572;52.094;4.870;2023-05-03T06:54:02;103041.03;;;16.67;39.62
51496;BME280;37572;52.094;4.870;2023-05-03T06:56:37;103030.50;;;17.03;39.01
51496;BME280;37572;52.094;4.870;2023-05-03T06:59:03;103022.91;;;17.36;37.85
51496;BME280;37572;52.094;4.870;2023-05-03T07:01:33;103020.63;;;17.69;37.78
51496;BME280;37572;52.094;4.870;2023-05-03T07:03:58;103024.50;;;17.94;36.15
51496;BME280;37572;52.094;4.870;2023-05-03T07:06:24;103023.13;;;18.08;35.89
51496;BME280;37572;52.094;4.870;2023-05-03T07:08:50;103020.44;;;18.26;35.85
51496;BME280;37572;52.094;4.870;2023-05-03T07:11:17;103008.78;;;18.43;34.56
51496;BME280;37572;52.094;4.870;2023-05-03T07:13:42;103008.63;;;18.63;34.40
51496;BME280;37572;52.094;4.870;2023-05-03T07:16:08;103014.81;;;18.81;34.34
51496;BME280;37572;52.094;4.870;2023-05-03T07:18:33;103007.41;;;19.01;34.27
51496;BME280;37572;52.094;4.870;2023-05-03T07:20:58;103016.97;;;19.22;33.79
51496;BME280;37572;52.094;4.870;2023-05-03T07:23:29;103022.47;;;19.38;33.68
51496;BME280;37572;52.094;4.870;2023-05-03T07:25:55;103018.94;;;19.46;33.52
51496;BME280;37572;52.094;4.870;2023-05-03T07:28:20;103010.22;;;19.60;33.52
51496;BME280;37572;52.094;4.870;2023-05-03T07:30:45;103002.38;;;19.75;32.80
51496;BME280;37572;52.094;4.870;2023-05-03T07:33:11;102995.19;;;20.01;33.10
51496;BME280;37572;52.094;4.870;2023-05-03T07:35:36;102988.94;;;20.25;31.93
51496;BME280;37572;52.094;4.870;2023-05-03T07:38:01;103000.63;;;20.25;31.42
51496;BME280;37572;52.094;4.870;2023-05-03T07:40:27;102991.91;;;19.81;31.06
51496;BME280;37572;52.094;4.870;2023-05-03T07:42:56;102993.31;;;19.50;31.69
51496;BME280;37572;52.094;4.870;2023-05-03T07:45:22;102985.50;;;19.39;31.45
51496;BME280;37572;52.094;4.870;2023-05-03T07:47:47;102982.06;;;19.29;32.58
51496;BME280;37572;52.094;4.870;2023-05-03T07:50:12;102985.06;;;19.17;32.75
51496;BME280;37572;52.094;4.870;2023-05-03T07:52:38;102979.75;;;19.08;33.07
51496;BME280;37572;52.094;4.870;2023-05-03T07:55:05;102981.69;;;18.89;32.61
51496;BME280;37572;52.094;4.870;2023-05-03T07:57:31;102973.59;;;18.71;32.83
51496;BME280;37572;52.094;4.870;2023-05-03T07:59:56;102974.13;;;18.48;33.17
51496;BME280;37572;52.094;4.870;2023-05-03T08:02:21;102973.53;;;18.19;33.62
51496;BME280;37572;52.094;4.870;2023-05-03T08:04:47;102971.56;;;17.93;33.97
51496;BME280;37572;52.094;4.870;2023-05-03T08:07:12;102974.34;;;17.73;34.44
51496;BME280;37572;52.094;4.870;2023-05-03T08:09:38;102967.78;;;17.58;35.19
51496;BME280;37572;52.094;4.870;2023-05-03T08:12:03;102968.31;;;17.44;35.07
51496;BME280;37572;52.094;4.870;2023-05-03T08:14:29;102974.03;;;17.31;35.08
51496;BME280;37572;52.094;4.870;2023-05-03T08:16:54;102979.47;;;17.21;35.19
51496;BME280;37572;52.094;4.870;2023-05-03T08:19:20;102980.91;;;17.15;35.58
51496;BME280;37572;52.094;4.870;2023-05-03T08:21:45;102965.63;;;17.06;35.07
51496;BME280;37572;52.094;4.870;2023-05-03T08:24:14;102973.03;;;16.94;35.04
51496;BME280;37572;52.094;4.870;2023-05-03T08:26:40;102970.19;;;16.96;35.72
51496;BME280;37572;52.094;4.870;2023-05-03T08:29:06;102972.00;;;17.05;35.64
51496;BME280;37572;52.094;4.870;2023-05-03T08:31:31;102969.88;;;17.09;35.39
51496;BME280;37572;52.094;4.870;2023-05-03T08:33:57;102968.72;;;17.11;35.74
51496;BME280;37572;52.094;4.870;2023-05-03T08:36:22;102981.22;;;17.02;34.27
51496;BME280;37572;52.094;4.870;2023-05-03T08:38:48;102969.38;;;16.66;34.59
51496;BME280;37572;52.094;4.870;2023-05-03T08:41:27;102981.44;;;16.52;35.26
51496;BME280;37572;52.094;4.870;2023-05-03T08:43:54;102984.41;;;16.49;35.73
51496;BME280;37572;52.094;4.870;2023-05-03T08:46:19;102988.34;;;16.55;36.23
51496;BME280;37572;52.094;4.870;2023-05-03T08:48:48;102985.09;;;16.71;36.69
51496;BME280;37572;52.094;4.870;2023-05-03T08:51:16;102992.28;;;16.90;36.34
51496;BME280;37572;52.094;4.870;2023-05-03T08:53:42;102991.41;;;17.09;36.34
51496;BME280;37572;52.094;4.870;2023-05-03T08:56:08;102996.00;;;17.26;35.57
51496;BME280;37572;52.094;4.870;2023-05-03T08:58:35;102992.13;;;17.38;35.61
51496;BME280;37572;52.094;4.870;2023-05-03T09:01:05;102997.06;;;17.43;35.72
51496;BME280;37572;52.094;4.870;2023-05-03T09:03:31;102998.34;;;17.49;35.54
51496;BME280;37572;52.094;4.870;2023-05-03T09:05:56;102990.22;;;17.59;35.74
51496;BME280;37572;52.094;4.870;2023-05-03T09:08:26;102985.63;;;17.69;35.95
51496;BME280;37572;52.094;4.870;2023-05-03T09:10:51;102981.31;;;17.76;35.03
51496;BME280;37572;52.094;4.870;2023-05-03T09:13:16;102982.69;;;17.80;35.48
51496;BME280;37572;52.094;4.870;2023-05-03T09:15:42;102985.00;;;17.75;35.55
51496;BME280;37572;52.094;4.870;2023-05-03T09:18:17;102983.59;;;17.71;35.47
51496;BME280;37572;52.094;4.870;2023-05-03T09:20:44;102983.50;;;17.63;34.99
51496;BME280;37572;52.094;4.870;2023-05-03T09:23:36;102986.41;;;17.51;35.15
51496;BME280;37572;52.094;4.870;2023-05-03T09:26:01;102988.41;;;17.49;36.14
51496;BME280;37572;52.094;4.870;2023-05-03T09:28:26;102991.25;;;17.48;35.31
51496;BME280;37572;52.094;4.870;2023-05-03T09:31:03;102993.94;;;17.48;35.60
51496;BME280;37572;52.094;4.870;2023-05-03T09:33:30;102989.94;;;17.52;35.78
51496;BME280;37572;52.094;4.870;2023-05-03T09:38:28;102981.66;;;17.63;36.00
51496;BME280;37572;52.094;4.870;2023-05-03T09:40:54;102978.66;;;17.66;35.41
51496;BME280;37572;52.094;4.870;2023-05-03T09:43:20;102976.50;;;17.70;36.39
51496;BME280;37572;52.094;4.870;2023-05-03T09:45:45;102978.06;;;17.72;36.28
51496;BME280;37572;52.094;4.870;2023-05-03T09:48:12;102982.88;;;17.79;36.04
51496;BME280;37572;52.094;4.870;2023-05-03T09:50:37;102981.53;;;17.83;36.02
51496;BME280;37572;52.094;4.870;2023-05-03T09:53:05;102980.84;;;17.90;36.67
51496;BME280;37572;52.094;4.870;2023-05-03T09:55:39;102964.09;;;18.05;36.50
51496;BME280;37572;52.094;4.870;2023-05-03T09:58:06;102974.81;;;18.15;35.39
51496;BME280;37572;52.094;4.870;2023-05-03T10:00:38;102982.84;;;18.24;35.61
51496;BME280;37572;52.094;4.870;2023-05-03T10:03:09;102966.88;;;18.31;35.62
51496;BME280;37572;52.094;4.870;2023-05-03T10:05:39;102972.50;;;18.38;35.58
51496;BME280;37572;52.094;4.870;2023-05-03T10:08:09;102973.03;;;18.41;35.46
51496;BME280;37572;52.094;4.870;2023-05-03T10:10:36;102972.41;;;18.47;36.09
51496;BME280;37572;52.094;4.870;2023-05-03T10:13:04;102954.97;;;18.60;36.45
51496;BME280;37572;52.094;4.870;2023-05-03T10:15:30;102966.34;;;18.72;35.53
51496;BME280;37572;52.094;4.870;2023-05-03T10:17:56;102964.56;;;18.80;35.50
51496;BME280;37572;52.094;4.870;2023-05-03T10:20:32;102955.84;;;18.86;35.54
51496;BME280;37572;52.094;4.870;2023-05-03T10:25:27;102958.78;;;18.75;35.24
51496;BME280;37572;52.094;4.870;2023-05-03T10:27:52;102959.88;;;18.64;34.92
51496;BME280;37572;52.094;4.870;2023-05-03T10:32:49;102953.00;;;18.44;35.55
51496;BME280;37572;52.094;4.870;2023-05-03T10:35:16;102950.94;;;18.38;36.08
51496;BME280;37572;52.094;4.870;2023-05-03T10:37:42;102954.00;;;18.43;36.16
51496;BME280;37572;52.094;4.870;2023-05-03T10:40:12;102947.69;;;18.52;36.77
51496;BME280;37572;52.094;4.870;2023-05-03T10:42:42;102947.22;;;18.65;36.63
51496;BME280;37572;52.094;4.870;2023-05-03T10:45:08;102944.75;;;18.72;35.58
51496;BME280;37572;52.094;4.870;2023-05-03T10:47:43;102939.28;;;18.63;36.17
51496;BME280;37572;52.094;4.870;2023-05-03T10:55:15;102940.72;;;18.49;35.00
51496;BME280;37572;52.094;4.870;2023-05-03T10:57:43;102937.72;;;18.53;34.90
51496;BME280;37572;52.094;4.870;2023-05-03T11:00:13;102935.09;;;18.61;35.73
51496;BME280;37572;52.094;4.870;2023-05-03T11:05:36;102927.78;;;18.79;35.21
51496;BME280;37572;52.094;4.870;2023-05-03T11:08:13;102922.38;;;18.79;34.79
51496;BME280;37572;52.094;4.870;2023-05-03T11:10:39;102923.06;;;18.81;34.72
51496;BME280;37572;52.094;4.870;2023-05-03T11:13:05;102912.34;;;18.90;35.16
51496;BME280;37572;52.094;4.870;2023-05-03T11:15:31;102915.41;;;18.95;34.82
51496;BME280;37572;52.094;4.870;2023-05-03T11:17:56;102913.88;;;18.92;33.99
51496;BME280;37572;52.094;4.870;2023-05-03T11:20:22;102916.44;;;18.94;35.12
51496;BME280;37572;52.094;4.870;2023-05-03T11:22:48;102909.22;;;19.02;34.84
51496;BME280;37572;52.094;4.870;2023-05-03T11:25:13;102897.81;;;19.17;35.39
51496;BME280;37572;52.094;4.870;2023-05-03T11:27:42;102898.69;;;19.34;35.18
51496;BME280;37572;52.094;4.870;2023-05-03T11:30:09;102900.75;;;19.48;34.97
51496;BME280;37572;52.094;4.870;2023-05-03T11:32:35;102902.47;;;19.57;34.77
51496;BME280;37572;52.094;4.870;2023-05-03T11:35:01;102898.75;;;19.67;35.07
51496;BME280;37572;52.094;4.870;2023-05-03T11:37:30;102909.78;;;19.73;35.12
51496;BME280;37572;52.094;4.870;2023-05-03T11:39:56;102900.00;;;19.81;34.73
51496;BME280;37572;52.094;4.870;2023-05-03T11:42:22;102895.78;;;19.94;35.21
51496;BME280;37572;52.094;4.870;2023-05-03T11:44:51;102890.72;;;20.08;34.30
51496;BME280;37572;52.094;4.870;2023-05-03T11:47:16;102887.84;;;20.18;34.64
51496;BME280;37572;52.094;4.870;2023-05-03T11:49:53;102889.88;;;20.24;34.04
51496;BME280;37572;52.094;4.870;2023-05-03T11:52:23;102892.25;;;20.27;33.51
51496;BME280;37572;52.094;4.870;2023-05-03T11:54:52;102888.84;;;20.25;33.16
51496;BME280;37572;52.094;4.870;2023-05-03T11:57:18;102887.50;;;20.21;33.44
51496;BME280;37572;52.094;4.870;2023-05-03T11:59:43;102875.69;;;20.22;33.40
51496;BME280;37572;52.094;4.870;2023-05-03T12:02:14;102880.41;;;20.28;34.19
51496;BME280;37572;52.094;4.870;2023-05-03T12:04:40;102873.16;;;20.28;33.71
51496;BME280;37572;52.094;4.870;2023-05-03T12:07:09;102870.06;;;20.31;33.26
51496;BME280;37572;52.094;4.870;2023-05-03T12:09:34;102863.66;;;20.41;33.53
51496;BME280;37572;52.094;4.870;2023-05-03T12:12:00;102855.84;;;20.54;33.16
51496;BME280;37572;52.094;4.870;2023-05-03T12:14:26;102859.22;;;20.64;33.37
51496;BME280;37572;52.094;4.870;2023-05-03T12:16:52;102848.06;;;20.67;32.55
51496;BME280;37572;52.094;4.870;2023-05-03T12:19:28;102852.22;;;20.78;32.20
51496;BME280;37572;52.094;4.870;2023-05-03T12:21:54;102841.03;;;20.89;33.07
51496;BME280;37572;52.094;4.870;2023-05-03T12:24:20;102840.59;;;21.09;33.54
51496;BME280;37572;52.094;4.870;2023-05-03T12:26:50;102841.47;;;21.33;33.39
51496;BME280;37572;52.094;4.870;2023-05-03T12:29:15;102830.19;;;21.52;33.13
51496;BME280;37572;52.094;4.870;2023-05-03T12:31:41;102834.63;;;21.68;32.55
51496;BME280;37572;52.094;4.870;2023-05-03T12:34:07;102834.56;;;21.76;31.69
51496;BME280;37572;52.094;4.870;2023-05-03T12:36:33;102837.78;;;21.80;32.00
51496;BME280;37572;52.094;4.870;2023-05-03T12:38:59;102822.00;;;21.84;31.89
51496;BME280;37572;52.094;4.870;2023-05-03T12:41:26;102822.69;;;22.01;31.72
51496;BME280;37572;52.094;4.870;2023-05-03T12:43:54;102809.72;;;22.26;31.71
51496;BME280;37572;52.094;4.870;2023-05-03T12:46:21;102808.91;;;22.55;31.32
51496;BME280;37572;52.094;4.870;2023-05-03T12:48:48;102809.88;;;22.99;31.54
51496;BME280;37572;52.094;4.870;2023-05-03T12:51:13;102808.25;;;23.41;31.03
51496;BME280;37572;52.094;4.870;2023-05-03T12:53:39;102803.28;;;23.66;31.14
51496;BME280;37572;52.094;4.870;2023-05-03T12:56:05;102813.44;;;23.79;30.02
51496;BME280;37572;52.094;4.870;2023-05-03T12:58:30;102797.38;;;23.84;30.08
51496;BME280;37572;52.094;4.870;2023-05-03T13:00:56;102790.94;;;23.85;29.65
51496;BME280;37572;52.094;4.870;2023-05-03T13:03:22;102796.41;;;23.92;29.90
51496;BME280;37572;52.094;4.870;2023-05-03T13:05:47;102790.00;;;24.06;29.70
51496;BME280;37572;52.094;4.870;2023-05-03T13:08:13;102789.75;;;24.29;29.63
51496;BME280;37572;52.094;4.870;2023-05-03T13:10:38;102790.13;;;24.61;29.96
51496;BME280;37572;52.094;4.870;2023-05-03T13:13:05;102787.75;;;24.93;29.21
51496;BME280;37572;52.094;4.870;2023-05-03T13:15:31;102776.28;;;25.18;28.56
51496;BME280;37572;52.094;4.870;2023-05-03T13:17:57;102783.06;;;25.28;28.62
51496;BME280;37572;52.094;4.870;2023-05-03T13:20:25;102776.69;;;25.08;27.72